Portland International Airport (KPDX) Information & Weather

WARNING: the data listed below is for informational purposes only and should be confirmed from official sources. Data presented here on this page may be out of date, incomplete or wrong.

Name: Portland International Airport
Identifier: KPDX

Coord: 45.5887N 122.5969W
Var: 16°E

Country: United States
Municipality: PORTLAND, OR
Time Zone: (GMT-08:00) America/Los_Angeles

Station Elevation: 31 ft
Pressure Altitude: -12 ft
Density Altitude: 1107 ft
Freezing Level: 11647 ft

Civil Twilight
Morning: 13:00 UTC  (05:00 local)
Evening: 03:19 UTC  (19:19 local)

Flight Category: VFR (about 1 month ago)

METAR KPDX 312353Z 22009KT 10SM FEW035 SCT065 BKN200 23/11 A2996 RMK AO2 SLP143 T02330111 10233 20194 58021= [toggle past 4 hours]

TAF AMD KPDX 012103Z 0121/0218 22010KT P6SM VCSH SCT050 BKN200 FM020700 21004KT P6SM VCSH SCT025 OVC050 FM021400 22004KT P6SM -RA BKN025 OVC050=

Upper Winds

Source   Valid 375 1000 2000 2500 3000 5000 6000 8000 10000 12000 14000 16000 18000 21000 24000 26000 30000 34000 39000 44000 52000 60000
GFS 0121/0200 2105+17 2107+15 2210+13 2212+12 2315+10 2321+07 2323+05 2322+02 2428+00 2433-01 2437-04 2441-08 2446-13 2451-19 2456-24 2561-30 2562-38 2569-49 2562-54 2556-55 2536-57 2424-54

SIGMET/AIRMET

None within 25nm.

PIREP

None within 25nm.

NOTAM

None within 25nm.

Runway Data

Frequencies

Nearby Airports

Nearby Navaids